createdAt,value
2019-04-04T00:00:47.785Z,6.97
2019-04-04T00:03:34.003Z,6.95
2019-04-04T00:06:20.112Z,6.84
2019-04-04T00:09:11.360Z,6.83
2019-04-04T00:11:57.931Z,6.87
2019-04-04T00:14:44.419Z,6.88
2019-04-04T00:17:31.347Z,6.91
2019-04-04T00:20:17.446Z,6.82
2019-04-04T00:23:05.042Z,6.98
2019-04-04T00:25:52.343Z,7.02
2019-04-04T00:28:38.699Z,6.93
2019-04-04T00:31:24.687Z,6.88
2019-04-04T00:34:13.684Z,7.02
2019-04-04T00:36:59.722Z,6.98
2019-04-04T00:39:46.183Z,6.99
2019-04-04T00:42:33.616Z,6.98
2019-04-04T00:45:19.924Z,6.94
2019-04-04T00:48:06.680Z,6.93
2019-04-04T00:50:54.884Z,6.83
2019-04-04T00:53:42.991Z,6.81
2019-04-04T00:56:28.943Z,6.73
2019-04-04T00:59:16.980Z,6.62
2019-04-04T01:02:03.273Z,6.56
2019-04-04T01:04:49.521Z,6.65
2019-04-04T01:07:36.464Z,6.65
2019-04-04T01:10:22.389Z,6.68
2019-04-04T01:13:08.352Z,6.73
2019-04-04T01:15:54.664Z,6.69
2019-04-04T01:18:40.984Z,6.79
2019-04-04T01:21:27.744Z,6.73
2019-04-04T01:24:14.300Z,6.94
2019-04-04T01:27:01.665Z,6.92
2019-04-04T01:29:47.920Z,6.75
2019-04-04T01:32:34.440Z,6.85
2019-04-04T01:35:22.802Z,6.78
2019-04-04T01:38:11.952Z,7.01
2019-04-04T01:40:57.925Z,7.12
2019-04-04T01:43:44.261Z,6.87
2019-04-04T01:46:30.701Z,7.20
2019-04-04T01:49:16.823Z,7.13
2019-04-04T01:52:03.148Z,7.17
2019-04-04T01:54:49.765Z,7.17
2019-04-04T01:57:38.564Z,7.18
2019-04-04T02:00:24.484Z,7.03
2019-04-04T02:03:11.336Z,7.14
2019-04-04T02:05:58.695Z,7.13
2019-04-04T02:08:45.300Z,6.75
2019-04-04T02:11:32.003Z,6.65
2019-04-04T02:14:19.581Z,6.82
2019-04-04T02:17:06.140Z,6.61
2019-04-04T02:19:55.614Z,6.67
2019-04-04T02:22:41.224Z,6.52
2019-04-04T02:25:27.325Z,6.70
2019-04-04T02:28:13.887Z,6.76
2019-04-04T02:31:00.973Z,6.52
2019-04-04T02:33:47.762Z,6.50
2019-04-04T02:36:34.646Z,6.19
2019-04-04T02:39:21.568Z,6.15
2019-04-04T02:42:07.918Z,6.10
2019-04-04T02:44:54.153Z,6.06
2019-04-04T02:47:40.506Z,6.29
2019-04-04T02:50:26.751Z,6.21
2019-04-04T02:53:13.418Z,6.62
2019-04-04T02:56:03.387Z,6.46
2019-04-04T02:58:49.490Z,6.26
2019-04-04T03:01:36.263Z,6.25
2019-04-04T03:04:22.603Z,6.22
2019-04-04T03:07:08.829Z,6.17
2019-04-04T03:09:55.225Z,6.06
2019-04-04T03:12:41.704Z,5.91
2019-04-04T03:15:27.903Z,5.92
2019-04-04T03:18:14.448Z,6.04
2019-04-04T03:21:00.916Z,6.16
2019-04-04T03:23:47.763Z,5.88
2019-04-04T03:26:34.123Z,6.23
2019-04-04T03:29:20.733Z,6.25
2019-04-04T03:32:13.200Z,5.87
2019-04-04T03:34:56.048Z,5.92
2019-04-04T03:37:46.024Z,5.79
2019-04-04T03:40:31.361Z,5.86
2019-04-04T03:43:17.897Z,6.08
2019-04-04T03:46:05.230Z,5.88
2019-04-04T03:48:51.640Z,6.04
2019-04-04T03:51:38.470Z,6.25
2019-04-04T03:54:26.635Z,6.03
2019-04-04T03:57:12.797Z,6.15
2019-04-04T03:59:59.122Z,6.44
2019-04-04T04:02:49.719Z,6.43
2019-04-04T04:05:35.829Z,6.46
2019-04-04T04:08:22.263Z,6.26
2019-04-04T04:11:09.258Z,6.26
2019-04-04T04:13:55.450Z,6.08
2019-04-04T04:16:41.775Z,5.97
2019-04-04T04:19:30.986Z,5.97
2019-04-04T04:22:19.364Z,6.01
2019-04-04T04:25:05.934Z,5.99
2019-04-04T04:27:52.907Z,5.98
2019-04-04T04:30:40.596Z,5.83
2019-04-04T04:33:29.278Z,5.83
2019-04-04T04:36:19.860Z,5.83
2019-04-04T04:39:06.534Z,5.80
2019-04-04T04:41:54.412Z,5.80
2019-04-04T04:44:41.014Z,5.83
2019-04-04T04:47:27.609Z,5.76
2019-04-04T04:50:14.186Z,5.85
2019-04-04T04:53:01.214Z,5.95
2019-04-04T04:55:51.734Z,6.00
2019-04-04T04:58:38.095Z,6.11
2019-04-04T05:01:26.930Z,6.19
2019-04-04T05:04:15.491Z,6.16
2019-04-04T05:07:02.058Z,5.88
2019-04-04T05:09:51.495Z,5.79
2019-04-04T05:12:40.348Z,5.79
2019-04-04T05:15:26.962Z,6.11
2019-04-04T05:18:14.171Z,6.34
2019-04-04T05:21:02.639Z,6.15
2019-04-04T05:23:49.182Z,6.10
2019-04-04T05:26:38.765Z,6.37
2019-04-04T05:29:24.926Z,6.53
2019-04-04T05:32:11.658Z,6.42
2019-04-04T05:35:00.951Z,6.04
2019-04-04T05:37:46.962Z,6.26
2019-04-04T05:40:36.441Z,6.42
2019-04-04T05:43:22.925Z,6.63
2019-04-04T05:46:11.778Z,6.61
2019-04-04T05:49:00.712Z,6.56
2019-04-04T05:51:48.440Z,6.51
2019-04-04T05:54:38.747Z,6.56
2019-04-04T05:57:25.738Z,6.82
2019-04-04T06:00:14.435Z,6.86
2019-04-04T06:03:00.498Z,6.91
2019-04-04T06:05:49.732Z,6.61
2019-04-04T06:08:39.193Z,6.27
2019-04-04T06:11:28.818Z,6.17
2019-04-04T06:14:20.445Z,6.12
2019-04-04T06:17:07.240Z,6.05
2019-04-04T06:19:56.363Z,6.19
2019-04-04T06:22:45.307Z,6.05
2019-04-04T06:25:35.692Z,6.07
2019-04-04T06:28:21.094Z,6.28
2019-04-04T06:31:07.642Z,6.56
2019-04-04T06:33:54.191Z,7.01
2019-04-04T06:36:41.216Z,6.73
2019-04-04T06:39:30.232Z,6.96
2019-04-04T06:42:16.630Z,7.26
2019-04-04T06:45:05.433Z,7.52
2019-04-04T06:47:52.190Z,7.52
2019-04-04T06:50:42.973Z,7.59
2019-04-04T06:53:29.850Z,6.90
2019-04-04T06:56:16.273Z,6.61
2019-04-04T06:59:02.779Z,6.86
2019-04-04T07:01:51.938Z,7.02
2019-04-04T07:04:39.991Z,7.61
2019-04-04T07:07:26.826Z,7.88
2019-04-04T07:10:16.382Z,7.68
2019-04-04T07:13:14.913Z,7.74
2019-04-04T07:16:06.042Z,7.42
2019-04-04T07:18:40.975Z,7.58
2019-04-04T07:21:28.159Z,7.73
2019-04-04T07:24:14.607Z,7.68
2019-04-04T07:27:01.088Z,7.30
2019-04-04T07:29:47.558Z,7.43
2019-04-04T07:32:33.575Z,7.55
2019-04-04T07:35:21.105Z,7.60
2019-04-04T07:38:09.335Z,7.29
2019-04-04T07:40:56.727Z,7.24
2019-04-04T07:43:43.269Z,7.31
2019-04-04T07:46:32.931Z,7.53
2019-04-04T07:49:21.136Z,7.74
2019-04-04T07:52:08.630Z,7.67
2019-04-04T07:54:55.394Z,7.90
2019-04-04T07:57:42.703Z,8.19
2019-04-04T08:00:29.034Z,8.21
2019-04-04T08:03:17.687Z,8.11
2019-04-04T08:06:04.657Z,7.47
2019-04-04T08:08:52.018Z,8.11
2019-04-04T08:11:38.425Z,8.48
2019-04-04T08:14:25.179Z,7.74
2019-04-04T08:17:11.387Z,7.45
2019-04-04T08:19:59.794Z,7.26
2019-04-04T08:22:48.509Z,7.90
2019-04-04T08:25:35.175Z,8.16
2019-04-04T08:28:22.967Z,7.87
2019-04-04T08:31:10.471Z,7.44
2019-04-04T08:33:59.659Z,7.09
2019-04-04T08:36:45.762Z,6.94
2019-04-04T08:39:32.287Z,7.39
2019-04-04T08:42:18.359Z,7.06
2019-04-04T08:45:04.982Z,7.48
2019-04-04T08:47:51.751Z,7.69
2019-04-04T08:50:39.206Z,7.05
2019-04-04T08:53:38.879Z,7.05
2019-04-04T08:56:14.201Z,7.50
2019-04-04T08:59:00.899Z,7.32
2019-04-04T09:01:47.736Z,7.19
2019-04-04T09:04:34.051Z,7.28
2019-04-04T09:07:20.240Z,6.92
2019-04-04T09:10:07.651Z,7.36
2019-04-04T09:12:57.800Z,7.26
2019-04-04T09:15:43.983Z,6.95
2019-04-04T09:18:32.635Z,6.92
2019-04-04T09:21:19.622Z,7.28
2019-04-04T09:24:06.777Z,7.10
2019-04-04T09:26:56.207Z,6.73
2019-04-04T09:29:42.911Z,7.04
2019-04-04T09:32:29.304Z,7.18
2019-04-04T09:35:20.331Z,7.23
2019-04-04T09:38:07.278Z,7.25
2019-04-04T09:40:53.723Z,7.63
2019-04-04T09:43:42.630Z,7.56
2019-04-04T09:46:31.243Z,7.58
2019-04-04T09:49:17.942Z,7.62
2019-04-04T09:52:04.208Z,7.25
2019-04-04T09:54:52.771Z,7.60
2019-04-04T09:57:39.611Z,7.72
2019-04-04T10:00:28.187Z,7.65
2019-04-04T10:03:16.818Z,7.68
2019-04-04T10:06:05.395Z,7.79
2019-04-04T10:08:51.715Z,7.78
2019-04-04T10:11:38.690Z,7.56
2019-04-04T10:14:25.856Z,7.56
2019-04-04T10:17:12.488Z,7.45
2019-04-04T10:19:58.876Z,7.54
2019-04-04T10:22:45.874Z,7.34
2019-04-04T10:25:32.207Z,7.39
2019-04-04T10:28:18.571Z,7.35
2019-04-04T10:31:09.531Z,7.37
2019-04-04T10:33:57.848Z,7.40
2019-04-04T10:36:44.531Z,7.29
2019-04-04T10:39:32.802Z,7.74
2019-04-04T10:42:20.338Z,7.86
2019-04-04T10:45:07.804Z,7.59
2019-04-04T10:47:54.360Z,7.33
2019-04-04T10:50:40.488Z,7.61
2019-04-04T10:53:26.919Z,7.35
2019-04-04T10:56:13.979Z,7.43
2019-04-04T10:59:00.520Z,7.48
2019-04-04T11:01:46.483Z,7.58
2019-04-04T11:04:33.075Z,7.70
2019-04-04T11:07:19.063Z,7.64
2019-04-04T11:10:05.967Z,7.98
2019-04-04T11:12:52.444Z,8.37
2019-04-04T11:15:39.209Z,7.68
2019-04-04T11:18:26.104Z,7.97
2019-04-04T11:21:12.302Z,8.20
2019-04-04T11:23:58.664Z,8.11
2019-04-04T11:29:29.378Z,8.41
2019-04-04T11:32:15.581Z,8.62
2019-04-04T11:35:02.670Z,8.59
2019-04-04T11:37:49.894Z,8.34
2019-04-04T11:40:38.729Z,8.33
2019-04-04T11:43:25.697Z,7.84
2019-04-04T11:46:13.126Z,8.01
2019-04-04T11:48:59.344Z,7.79
2019-04-04T11:51:46.061Z,8.03
2019-04-04T11:54:34.308Z,7.98
2019-04-04T11:57:23.846Z,7.89
2019-04-04T12:00:14.391Z,7.78
2019-04-04T12:03:00.817Z,7.53
2019-04-04T12:05:47.031Z,7.85
2019-04-04T12:08:33.546Z,7.64
2019-04-04T12:11:22.435Z,7.66
2019-04-04T12:14:08.105Z,7.93
2019-04-04T12:16:55.540Z,7.81
2019-04-04T12:19:41.713Z,8.11
2019-04-04T12:22:28.737Z,8.00
2019-04-04T12:25:17.624Z,8.04
2019-04-04T12:28:06.546Z,7.93
2019-04-04T12:30:55.005Z,7.88
2019-04-04T12:33:44.225Z,8.08
2019-04-04T12:36:30.946Z,8.10
2019-04-04T12:39:19.098Z,8.19
2019-04-04T12:42:06.146Z,8.32
2019-04-04T12:44:52.037Z,8.00
2019-04-04T12:47:38.340Z,8.12
2019-04-04T12:50:25.299Z,7.99
2019-04-04T12:53:15.341Z,7.81
2019-04-04T12:56:02.566Z,7.79
2019-04-04T12:58:49.362Z,8.04
2019-04-04T13:01:37.830Z,7.91
2019-04-04T13:04:31.550Z,8.11
2019-04-04T13:07:13.114Z,7.93
2019-04-04T13:10:10.862Z,8.25
2019-04-04T13:12:47.960Z,8.41
2019-04-04T13:15:34.187Z,7.72
2019-04-04T13:18:20.783Z,7.48
2019-04-04T13:21:08.294Z,7.63
2019-04-04T13:23:55.230Z,7.86
2019-04-04T13:26:44.613Z,7.76
2019-04-04T13:29:31.306Z,7.72
2019-04-04T13:32:17.934Z,7.48
2019-04-04T13:35:05.818Z,7.78
2019-04-04T13:37:57.162Z,8.02
2019-04-04T13:40:45.762Z,7.94
2019-04-04T13:43:32.482Z,7.80
2019-04-04T13:46:18.489Z,8.06
2019-04-04T13:49:04.889Z,8.19
2019-04-04T13:51:53.107Z,7.95
2019-04-04T13:54:40.442Z,7.93
2019-04-04T13:57:26.575Z,8.05
2019-04-04T14:00:13.734Z,8.37
2019-04-04T14:02:59.851Z,8.53
2019-04-04T14:05:49.715Z,8.45
2019-04-04T14:08:39.428Z,8.50
2019-04-04T14:11:25.843Z,8.53
2019-04-04T14:14:12.366Z,8.38
2019-04-04T14:16:58.569Z,7.96
2019-04-04T14:19:44.871Z,7.97
2019-04-04T14:22:32.389Z,7.82
2019-04-04T14:25:19.777Z,8.01
2019-04-04T14:28:06.050Z,8.29
2019-04-04T14:30:52.533Z,8.23
2019-04-04T14:33:40.226Z,8.49
2019-04-04T14:36:29.735Z,8.38
2019-04-04T14:39:15.908Z,8.20
2019-04-04T14:42:01.892Z,7.82
2019-04-04T14:44:49.011Z,7.80
2019-04-04T14:47:35.727Z,7.74
2019-04-04T14:50:21.412Z,7.78
2019-04-04T14:53:08.505Z,7.64
2019-04-04T14:55:54.891Z,7.90
2019-04-04T14:58:40.907Z,7.86
2019-04-04T15:01:28.796Z,7.74
2019-04-04T15:04:16.951Z,7.70
2019-04-04T15:07:03.199Z,7.66
2019-04-04T15:09:50.907Z,7.88
2019-04-04T15:12:37.303Z,7.65
2019-04-04T15:15:26.178Z,7.55
2019-04-04T15:18:11.475Z,7.59
2019-04-04T15:20:58.116Z,7.29
2019-04-04T15:23:44.308Z,7.52
2019-04-04T15:26:32.935Z,7.65
2019-04-04T15:29:20.064Z,7.64
2019-04-04T15:32:10.176Z,7.70
2019-04-04T15:34:57.858Z,7.88
2019-04-04T15:37:44.087Z,7.73
2019-04-04T15:40:30.791Z,7.86
2019-04-04T15:43:17.322Z,7.77
2019-04-04T15:46:05.747Z,7.54
2019-04-04T15:48:52.904Z,7.48
2019-04-04T15:51:39.266Z,7.66
2019-04-04T15:54:26.349Z,7.51
2019-04-04T15:57:12.748Z,7.78
2019-04-04T15:59:59.056Z,7.83
2019-04-04T16:02:45.683Z,7.97
2019-04-04T16:05:31.716Z,7.81
2019-04-04T16:08:18.092Z,7.54
2019-04-04T16:11:04.403Z,7.90
2019-04-04T16:13:50.998Z,7.39
2019-04-04T16:16:39.140Z,7.61
2019-04-04T16:19:25.151Z,7.47
2019-04-04T16:22:11.348Z,7.05
2019-04-04T16:24:59.731Z,7.45
2019-04-04T16:27:49.124Z,7.57
2019-04-04T16:30:35.619Z,7.63
2019-04-04T16:33:22.103Z,7.58
2019-04-04T16:36:08.599Z,7.59
2019-04-04T16:38:54.298Z,7.86
2019-04-04T16:41:41.117Z,7.62
2019-04-04T16:44:27.303Z,7.74
2019-04-04T16:47:13.556Z,7.81
2019-04-04T16:49:59.799Z,7.53
2019-04-04T16:52:45.903Z,7.60
2019-04-04T16:55:32.415Z,7.74
2019-04-04T16:58:18.726Z,7.77
2019-04-04T17:01:05.646Z,7.46
2019-04-04T17:04:01.711Z,7.55
2019-04-04T17:06:45.211Z,7.63
2019-04-04T17:09:31.384Z,7.24
2019-04-04T17:12:17.779Z,7.42
2019-04-04T17:15:04.522Z,7.59
2019-04-04T17:17:50.860Z,7.59
2019-04-04T17:20:37.159Z,7.43
2019-04-04T17:23:25.719Z,7.26
2019-04-04T17:26:12.041Z,7.40
2019-04-04T17:28:57.910Z,7.26
2019-04-04T17:31:44.551Z,7.44
2019-04-04T17:34:30.814Z,7.43
2019-04-04T17:37:33.304Z,7.52
2019-04-04T17:40:19.403Z,7.46
2019-04-04T17:43:07.027Z,7.56
2019-04-04T17:45:53.652Z,7.46
2019-04-04T17:48:39.600Z,7.43
2019-04-04T17:51:26.081Z,7.52
2019-04-04T17:54:13.121Z,7.47
2019-04-04T17:56:59.401Z,7.44
2019-04-04T17:59:45.384Z,7.51
2019-04-04T18:02:32.111Z,7.34
2019-04-04T18:05:18.544Z,7.15
2019-04-04T18:08:04.736Z,7.12
2019-04-04T18:10:51.650Z,7.33
2019-04-04T18:13:37.645Z,7.50
2019-04-04T18:16:24.072Z,7.10
2019-04-04T18:19:10.496Z,7.19
2019-04-04T18:22:00.192Z,7.44
2019-04-04T18:24:46.604Z,7.49
2019-04-04T18:27:35.264Z,7.23
2019-04-04T18:30:21.893Z,7.38
2019-04-04T18:33:08.425Z,7.14
2019-04-04T18:35:54.624Z,7.29
2019-04-04T18:38:41.374Z,7.10
2019-04-04T18:41:27.630Z,7.17
2019-04-04T18:44:14.368Z,7.35
2019-04-04T18:47:00.668Z,7.48
2019-04-04T18:49:47.116Z,7.38
2019-04-04T18:52:35.141Z,7.38
2019-04-04T18:55:21.338Z,7.30
2019-04-04T18:58:07.335Z,7.39
2019-04-04T19:00:53.624Z,7.39
2019-04-04T19:03:40.134Z,7.20
2019-04-04T19:06:26.984Z,7.14
2019-04-04T19:09:15.285Z,7.19
2019-04-04T19:12:01.588Z,7.01
2019-04-04T19:14:48.497Z,7.11
2019-04-04T19:17:34.660Z,6.68
2019-04-04T19:20:20.908Z,6.80
2019-04-04T19:23:07.212Z,6.39
2019-04-04T19:25:55.439Z,6.58
2019-04-04T19:28:41.469Z,6.62
2019-04-04T19:31:27.476Z,6.69
2019-04-04T19:34:13.493Z,6.73
2019-04-04T19:37:00.080Z,6.86
2019-04-04T19:39:46.645Z,6.74
2019-04-04T19:42:32.951Z,6.71
2019-04-04T19:45:21.313Z,6.69
2019-04-04T19:48:07.648Z,6.77
2019-04-04T19:50:53.630Z,6.47
2019-04-04T19:53:43.016Z,6.59
2019-04-04T19:56:29.229Z,6.60
2019-04-04T19:59:15.297Z,6.49
2019-04-04T20:02:01.822Z,6.69
2019-04-04T20:04:48.571Z,6.64
2019-04-04T20:07:36.582Z,6.41
2019-04-04T20:10:22.729Z,6.64
2019-04-04T20:13:09.381Z,6.46
2019-04-04T20:15:56.740Z,6.34
2019-04-04T20:18:42.733Z,6.38
2019-04-04T20:21:29.349Z,6.66
2019-04-04T20:24:15.140Z,6.69
2019-04-04T20:27:01.441Z,6.69
2019-04-04T20:29:48.191Z,6.54
2019-04-04T20:32:34.382Z,6.43
2019-04-04T20:35:20.767Z,6.47
2019-04-04T20:38:07.165Z,6.32
2019-04-04T20:40:54.327Z,6.47
2019-04-04T20:43:43.481Z,6.31
2019-04-04T20:46:28.533Z,6.32
2019-04-04T20:49:14.737Z,6.53
2019-04-04T20:52:00.822Z,6.73
2019-04-04T20:54:47.548Z,6.56
2019-04-04T20:57:33.747Z,6.60
2019-04-04T21:00:19.717Z,6.47
2019-04-04T21:03:06.414Z,6.65
2019-04-04T21:05:52.550Z,6.75
2019-04-04T21:08:38.789Z,6.85
2019-04-04T21:11:25.973Z,6.67
2019-04-04T21:14:13.053Z,6.59
2019-04-04T21:17:01.972Z,6.49
2019-04-04T21:19:48.788Z,6.84
2019-04-04T21:22:34.814Z,6.85
2019-04-04T21:25:21.294Z,6.83
2019-04-04T21:28:08.841Z,6.77
2019-04-04T21:30:55.837Z,6.90
2019-04-04T21:33:42.058Z,6.76
2019-04-04T21:36:30.133Z,6.79
2019-04-04T21:39:16.410Z,6.90
2019-04-04T21:42:03.313Z,6.76
2019-04-04T21:44:49.951Z,6.95
2019-04-04T21:47:38.577Z,6.99
2019-04-04T21:50:25.185Z,6.85
2019-04-04T21:53:13.662Z,7.00
2019-04-04T21:55:59.552Z,6.99
2019-04-04T21:58:50.265Z,6.71
2019-04-04T22:01:36.880Z,6.66
2019-04-04T22:04:23.197Z,6.76
2019-04-04T22:07:09.686Z,7.01
2019-04-04T22:09:56.285Z,7.01
2019-04-04T22:12:42.393Z,6.83
2019-04-04T22:15:28.682Z,6.88
2019-04-04T22:18:15.450Z,7.15
2019-04-04T22:21:02.202Z,7.11
2019-04-04T22:23:48.501Z,6.64
2019-04-04T22:26:35.002Z,6.93
2019-04-04T22:29:21.420Z,6.69
2019-04-04T22:32:08.014Z,6.55
2019-04-04T22:34:54.413Z,6.64
2019-04-04T22:37:41.017Z,7.07
2019-04-04T22:40:27.829Z,7.01
2019-04-04T22:43:15.068Z,7.15
2019-04-04T22:46:00.950Z,7.17
2019-04-04T22:48:47.445Z,7.43
2019-04-04T22:51:33.962Z,7.39
2019-04-04T22:54:20.629Z,7.09
2019-04-04T22:57:09.120Z,6.71
2019-04-04T22:59:57.246Z,7.04
2019-04-04T23:02:43.447Z,7.19
2019-04-04T23:05:29.540Z,6.91
2019-04-04T23:08:16.188Z,6.90
2019-04-04T23:11:02.766Z,6.94
2019-04-04T23:13:48.812Z,6.66
2019-04-04T23:16:35.102Z,6.62
2019-04-04T23:19:21.726Z,6.68
2019-04-04T23:22:08.059Z,6.79
2019-04-04T23:24:54.770Z,6.58
2019-04-04T23:27:41.577Z,6.73
2019-04-04T23:30:28.077Z,6.63
2019-04-04T23:33:14.362Z,6.56
2019-04-04T23:36:00.280Z,6.34
2019-04-04T23:38:46.773Z,6.71
2019-04-04T23:41:34.510Z,6.71
2019-04-04T23:44:21.418Z,6.77
2019-04-04T23:47:08.942Z,7.02
2019-04-04T23:49:55.554Z,6.98
2019-04-04T23:52:41.642Z,7.03
2019-04-04T23:55:28.146Z,6.86
2019-04-04T23:58:14.585Z,6.83
